CFL02 NZAR-NZAR

Flight info

Callsign CFL02
Flight time 0h 29m
Altitude 8000
Route NZAR
Aircraft EC45/L-SFG/C

Departure

Time 2026-04-12 05:02
Airport Ardmore Airport (NZAR)

Arrival

Time 2026-04-12 05:31
Airport Ardmore Airport (NZAR)
Time Latitude Longitude Altitude Speed Heading
2026-04-12 04:54 -37.02705 174.97540 116 ft 0 kts 183°
2026-04-12 05:00 -37.02704 174.97540 116 ft 0 kts 156°
2026-04-12 05:01 -37.02708 174.97543 148 ft 4 kts 146°
2026-04-12 05:01 -37.02732 174.97720 329 ft 61 kts 117°
2026-04-12 05:02 -37.03050 174.98434 670 ft 108 kts 147°
2026-04-12 05:02 -37.03620 174.98688 1213 ft 85 kts 208°
2026-04-12 05:02 -37.03939 174.98164 1716 ft 81 kts 252°
2026-04-12 05:02 -37.04151 174.97461 1987 ft 100 kts 249°
2026-04-12 05:03 -37.04557 174.96677 2091 ft 114 kts 225°
2026-04-12 05:03 -37.05311 174.96329 2296 ft 122 kts 194°
2026-04-12 05:03 -37.06163 174.96350 2496 ft 124 kts 186°
2026-04-12 05:03 -37.07023 174.96433 2752 ft 121 kts 185°
2026-04-12 05:04 -37.07845 174.96530 3027 ft 118 kts 184°
2026-04-12 05:04 -37.08661 174.96634 3283 ft 118 kts 183°
2026-04-12 05:04 -37.09475 174.96745 3511 ft 118 kts 181°
2026-04-12 05:04 -37.10292 174.96864 3715 ft 118 kts 181°
2026-04-12 05:05 -37.11109 174.96983 3911 ft 118 kts 180°
2026-04-12 05:05 -37.11940 174.97104 4103 ft 119 kts 180°
2026-04-12 05:05 -37.12753 174.97223 4283 ft 119 kts 180°
2026-04-12 05:05 -37.13574 174.97343 4457 ft 119 kts 179°
2026-04-12 05:06 -37.14408 174.97466 4626 ft 119 kts 179°
2026-04-12 05:06 -37.15227 174.97584 4786 ft 120 kts 179°
2026-04-12 05:06 -37.16059 174.97707 4941 ft 120 kts 178°
2026-04-12 05:06 -37.16895 174.97829 5090 ft 120 kts 178°
2026-04-12 05:07 -37.17722 174.97949 5232 ft 120 kts 178°
2026-04-12 05:07 -37.18554 174.98071 5369 ft 121 kts 178°
2026-04-12 05:07 -37.19391 174.98193 5500 ft 121 kts 177°
2026-04-12 05:07 -37.20232 174.98317 5627 ft 121 kts 177°
2026-04-12 05:08 -37.21069 174.98439 5748 ft 122 kts 177°
2026-04-12 05:08 -37.21915 174.98563 5865 ft 122 kts 176°
2026-04-12 05:08 -37.22757 174.98686 5977 ft 122 kts 176°
2026-04-12 05:08 -37.23629 174.98813 5984 ft 128 kts 176°
2026-04-12 05:09 -37.24513 174.98943 5986 ft 130 kts 176°
2026-04-12 05:09 -37.25424 174.99080 5987 ft 131 kts 175°
2026-04-12 05:09 -37.26323 174.99213 5988 ft 131 kts 176°
2026-04-12 05:09 -37.27232 174.99345 5988 ft 131 kts 176°
2026-04-12 05:10 -37.28133 174.99477 5988 ft 131 kts 176°
2026-04-12 05:10 -37.29025 174.99611 5986 ft 128 kts 175°
2026-04-12 05:10 -37.29895 174.99824 5975 ft 129 kts 160°
2026-04-12 05:10 -37.30523 175.00648 5975 ft 137 kts 123°
2026-04-12 05:11 -37.30622 175.01878 5972 ft 148 kts 86°
2026-04-12 05:11 -37.30121 175.03026 5970 ft 156 kts 49°
2026-04-12 05:11 -37.29161 175.03676 5978 ft 159 kts 15°
2026-04-12 05:11 -37.28077 175.04009 5986 ft 160 kts 13°
2026-04-12 05:12 -37.27064 175.04538 5984 ft 159 kts 31°
2026-04-12 05:12 -37.26151 175.05312 5988 ft 158 kts 40°
2026-04-12 05:12 -37.25289 175.06189 5989 ft 158 kts 43°
2026-04-12 05:12 -37.24448 175.07103 5989 ft 158 kts 44°
2026-04-12 05:13 -37.23636 175.08009 5989 ft 158 kts 45°
2026-04-12 05:13 -37.22806 175.08943 5989 ft 158 kts 45°
2026-04-12 05:13 -37.21989 175.09865 5989 ft 158 kts 45°
2026-04-12 05:13 -37.21164 175.10800 5989 ft 159 kts 45°
2026-04-12 05:14 -37.20346 175.11725 5989 ft 159 kts 45°
2026-04-12 05:14 -37.19524 175.12653 5990 ft 159 kts 45°
2026-04-12 05:14 -37.18693 175.13591 5990 ft 159 kts 45°
2026-04-12 05:14 -37.17866 175.14523 5990 ft 159 kts 45°
2026-04-12 05:15 -37.17043 175.15453 5990 ft 159 kts 45°
2026-04-12 05:15 -37.16218 175.16383 5990 ft 159 kts 45°
2026-04-12 05:15 -37.15399 175.17310 5990 ft 160 kts 45°
2026-04-12 05:15 -37.14561 175.18253 5990 ft 160 kts 45°
2026-04-12 05:16 -37.13748 175.19170 5990 ft 160 kts 45°
2026-04-12 05:16 -37.12915 175.20110 5990 ft 160 kts 45°
2026-04-12 05:16 -37.12087 175.21040 5990 ft 160 kts 45°
2026-04-12 05:16 -37.11257 175.21979 5990 ft 160 kts 45°
2026-04-12 05:17 -37.10438 175.22900 5990 ft 160 kts 45°
2026-04-12 05:17 -37.09597 175.23845 5990 ft 160 kts 45°
2026-04-12 05:17 -37.08770 175.24779 5927 ft 164 kts 45°
2026-04-12 05:17 -37.07920 175.25728 5614 ft 163 kts 40°
2026-04-12 05:18 -37.07093 175.26628 5376 ft 151 kts 40°
2026-04-12 05:18 -37.06306 175.27502 5133 ft 153 kts 41°
2026-04-12 05:18 -37.05539 175.28365 4841 ft 157 kts 41°
2026-04-12 05:18 -37.04687 175.29323 4525 ft 159 kts 40°
2026-04-12 05:19 -37.03857 175.30254 4232 ft 159 kts 40°
2026-04-12 05:19 -37.03042 175.31171 4010 ft 157 kts 40°
2026-04-12 05:19 -37.02225 175.32089 3782 ft 156 kts 39°
2026-04-12 05:19 -37.01414 175.32997 3557 ft 157 kts 39°
2026-04-12 05:20 -37.00588 175.33925 3322 ft 157 kts 38°
2026-04-12 05:20 -36.99698 175.34560 3147 ft 138 kts 358°
2026-04-12 05:20 -36.98855 175.34363 3079 ft 119 kts 315°
2026-04-12 05:20 -36.98373 175.33629 2962 ft 109 kts 281°
2026-04-12 05:21 -36.98024 175.32736 2805 ft 113 kts 282°
2026-04-12 05:21 -36.97659 175.31859 2653 ft 114 kts 284°
2026-04-12 05:21 -36.97283 175.30981 2503 ft 115 kts 284°
2026-04-12 05:21 -36.96898 175.30100 2352 ft 114 kts 285°
2026-04-12 05:22 -36.96516 175.29239 2264 ft 110 kts 285°
2026-04-12 05:22 -36.96153 175.28421 2193 ft 107 kts 284°
2026-04-12 05:22 -36.95787 175.27599 2119 ft 106 kts 285°
2026-04-12 05:22 -36.95427 175.26787 2046 ft 106 kts 284°
2026-04-12 05:23 -36.95070 175.25983 1972 ft 105 kts 284°
2026-04-12 05:23 -36.94730 175.25203 1980 ft 96 kts 279°
2026-04-12 05:23 -36.94733 175.24429 1987 ft 87 kts 251°
2026-04-12 05:23 -36.94856 175.23691 1978 ft 87 kts 250°
2026-04-12 05:24 -36.94994 175.22954 1978 ft 86 kts 249°
2026-04-12 05:24 -36.95136 175.22229 1977 ft 86 kts 249°
2026-04-12 05:24 -36.95289 175.21474 1979 ft 91 kts 249°
2026-04-12 05:24 -36.95452 175.20692 1982 ft 93 kts 250°
2026-04-12 05:25 -36.95622 175.19887 1977 ft 99 kts 250°
2026-04-12 05:25 -36.95802 175.19045 1978 ft 100 kts 249°
2026-04-12 05:25 -36.95985 175.18195 1977 ft 101 kts 250°
2026-04-12 05:25 -36.96168 175.17348 1978 ft 101 kts 249°
2026-04-12 05:26 -36.96350 175.16493 1977 ft 101 kts 249°
2026-04-12 05:26 -36.96537 175.15645 1977 ft 101 kts 249°
2026-04-12 05:26 -36.96722 175.14806 1977 ft 101 kts 249°
2026-04-12 05:26 -36.96910 175.13947 1978 ft 101 kts 249°
2026-04-12 05:27 -36.97096 175.13098 1977 ft 101 kts 249°
2026-04-12 05:27 -36.97282 175.12245 1977 ft 101 kts 249°
2026-04-12 05:27 -36.97469 175.11401 1978 ft 101 kts 249°
2026-04-12 05:27 -36.97656 175.10541 1977 ft 101 kts 250°
2026-04-12 05:28 -36.97879 175.09703 1981 ft 100 kts 243°
2026-04-12 05:28 -36.98167 175.08908 1978 ft 101 kts 242°
2026-04-12 05:28 -36.98542 175.08171 1885 ft 103 kts 234°
2026-04-12 05:28 -36.98912 175.07327 1559 ft 117 kts 240°
2026-04-12 05:29 -36.99224 175.06416 1397 ft 114 kts 258°
2026-04-12 05:29 -36.99427 175.05508 1347 ft 107 kts 244°
2026-04-12 05:29 -36.99739 175.04651 1276 ft 107 kts 243°
2026-04-12 05:29 -37.00055 175.03796 1115 ft 112 kts 243°
2026-04-12 05:30 -37.00389 175.02893 853 ft 117 kts 243°
2026-04-12 05:30 -37.00742 175.02037 702 ft 104 kts 239°
2026-04-12 05:30 -37.01093 175.01280 754 ft 99 kts 241°
2026-04-12 05:30 -37.01430 175.00502 707 ft 100 kts 241°
2026-04-12 05:31 -37.01757 174.99783 642 ft 89 kts 237°
2026-04-12 05:31 -37.02084 174.99179 529 ft 77 kts 234°
2026-04-12 05:31 -37.02362 174.98679 441 ft 60 kts 242°
2026-04-12 05:31 -37.02530 174.98253 335 ft 48 kts 242°
2026-04-12 05:32 -37.02678 174.97957 281 ft 29 kts 241°
2026-04-12 05:32 -37.02716 174.97786 175 ft 23 kts 275°
2026-04-12 05:32 -37.02698 174.97672 154 ft 14 kts 281°
2026-04-12 05:32 -37.02696 174.97646 153 ft 11 kts 269°
2026-04-12 05:33 -37.02699 174.97556 145 ft 2 kts 186°
2026-04-12 05:33 -37.02697 174.97562 117 ft 0 kts 182°